Time;durP1;ratioP1;P1;durP2;ratioP2;P2;SDS_P1;SDS_P2;PMS_P1;PMS_P2;Temp;Humidity;BMP_temperature;BMP_pressure;BME280_temperature;BME280_humidity;BME280_pressure;Samples;Min_cycle;Max_cycle;Signal;HPM_P1;HPM_P2
2022/10/12 00:00:42;;;;;;;106.78;27.52;;;;;;;;;;4875427;29;20040;-65
2022/10/12 00:03:10;;;;;;;81.55;28.08;;;;;;;;;;4859300;29;20056;-64
2022/10/12 00:05:38;;;;;;;71.38;25.35;;;;;;;;;;4876131;29;20417;-66
2022/10/12 00:08:05;;;;;;;96.93;27.40;;;;;;;;;;4875328;29;20040;-65
2022/10/12 00:10:32;;;;;;;90.50;24.63;;;;;;;;;;4857965;29;20049;-65
2022/10/12 00:12:59;;;;;;;116.00;28.05;;;;;;;;;;4874862;29;20124;-65
2022/10/12 00:15:25;;;;;;;128.93;29.25;;;;;;;;;;4874075;29;20037;-67
2022/10/12 00:17:52;;;;;;;92.95;26.90;;;;;;;;;;4874940;29;20091;-64
2022/10/12 00:20:19;;;;;;;88.13;27.15;;;;;;;;;;4875905;29;20045;-66
2022/10/12 00:22:45;;;;;;;100.07;28.98;;;;;;;;;;4875407;29;20045;-68
2022/10/12 00:25:12;;;;;;;81.03;27.63;;;;;;;;;;4858219;29;20045;-67
2022/10/12 00:27:38;;;;;;;138.98;30.35;;;;;;;;;;4874544;29;20422;-64
2022/10/12 00:30:05;;;;;;;132.93;29.90;;;;;;;;;;4874791;29;20049;-67
2022/10/12 00:32:32;;;;;;;107.47;26.77;;;;;;;;;;4875269;29;20052;-68
2022/10/12 00:34:58;;;;;;;79.28;24.65;;;;;;;;;;4875035;29;20041;-69
2022/10/12 00:37:25;;;;;;;81.05;26.42;;;;;;;;;;4858548;29;20124;-67
2022/10/12 00:39:51;;;;;;;92.57;27.52;;;;;;;;;;4875694;29;20056;-67
2022/10/12 00:42:18;;;;;;;106.55;29.42;;;;;;;;;;4874819;29;20041;-66
2022/10/12 00:44:45;;;;;;;95.47;28.05;;;;;;;;;;4872531;29;20536;-66
2022/10/12 00:47:18;;;;;;;78.82;26.20;;;;;;;;;;4877976;29;20045;-69
2022/10/12 00:49:47;;;;;;;80.60;27.13;;;;;;;;;;4878739;29;20048;-66
2022/10/12 00:52:14;;;;;;;127.78;31.48;;;;;;;;;;4878395;29;20041;-70
2022/10/12 00:54:42;;;;;;;71.88;25.65;;;;;;;;;;4878946;29;20045;-67
2022/10/12 00:57:12;;;;;;;87.32;27.10;;;;;;;;;;4878838;29;20044;-68
2022/10/12 00:59:47;;;;;;;103.70;27.55;;;;;;;;;;4878705;29;20123;-64
2022/10/12 01:02:14;;;;;;;86.72;24.52;;;;;;;;;;4879044;29;20045;-66
2022/10/12 01:04:40;;;;;;;95.90;25.35;;;;;;;;;;4877840;29;20056;-64
2022/10/12 01:07:07;;;;;;;88.20;24.40;;;;;;;;;;4877978;29;20053;-64
2022/10/12 01:09:33;;;;;;;76.63;23.58;;;;;;;;;;4862269;29;20037;-63
2022/10/12 01:12:02;;;;;;;100.43;24.48;;;;;;;;;;4877868;29;20418;-63
2022/10/12 01:14:29;;;;;;;94.30;24.33;;;;;;;;;;4877964;29;20052;-63
2022/10/12 01:17:04;;;;;;;89.05;26.77;;;;;;;;;;4877703;29;20061;-63
2022/10/12 01:19:48;;;;;;;101.18;25.58;;;;;;;;;;4861376;29;20490;-63
2022/10/12 01:22:22;;;;;;;90.00;26.33;;;;;;;;;;4862106;29;20047;-63
2022/10/12 01:24:51;;;;;;;76.38;22.65;;;;;;;;;;4877952;29;20044;-63
2022/10/12 01:27:23;;;;;;;72.32;22.75;;;;;;;;;;4877541;29;20856;-62
2022/10/12 01:30:05;;;;;;;74.55;20.88;;;;;;;;;;4874703;29;20471;-62
2022/10/12 01:32:50;;;;;;;111.43;22.95;;;;;;;;;;4878015;29;20049;-62
2022/10/12 01:35:20;;;;;;;82.05;21.42;;;;;;;;;;4877873;29;20060;-62
2022/10/12 01:38:05;;;;;;;80.55;20.67;;;;;;;;;;4877309;29;20048;-62
2022/10/12 01:40:43;;;;;;;95.28;20.65;;;;;;;;;;4877278;29;20049;-63
2022/10/12 01:43:09;;;;;;;72.50;20.88;;;;;;;;;;4877311;29;20037;-62
2022/10/12 01:45:36;;;;;;;84.75;19.52;;;;;;;;;;4876403;29;20049;-63
2022/10/12 01:48:03;;;;;;;114.13;23.25;;;;;;;;;;4877406;29;20133;-65
2022/10/12 01:50:34;;;;;;;67.07;19.27;;;;;;;;;;4878272;29;20045;-64
2022/10/12 01:53:07;;;;;;;79.05;19.77;;;;;;;;;;4877579;29;20089;-67
2022/10/12 01:55:50;;;;;;;67.82;19.35;;;;;;;;;;4876588;29;20549;-68
2022/10/12 01:58:39;;;;;;;67.60;18.80;;;;;;;;;;4877622;29;20045;-69
2022/10/12 02:01:09;;;;;;;83.40;18.90;;;;;;;;;;4852442;29;20061;-68
2022/10/12 02:03:44;;;;;;;94.97;20.88;;;;;;;;;;4860867;29;20037;-68
2022/10/12 02:06:12;;;;;;;63.40;17.83;;;;;;;;;;4860371;29;20067;-67
2022/10/12 02:08:39;;;;;;;73.85;19.27;;;;;;;;;;4877627;29;20041;-65
2022/10/12 02:11:05;;;;;;;98.85;21.48;;;;;;;;;;4876282;29;20388;-69
2022/10/12 02:13:34;;;;;;;73.80;20.10;;;;;;;;;;4876385;29;20065;-68
2022/10/12 02:16:03;;;;;;;54.60;18.88;;;;;;;;;;4876762;29;20109;-68
2022/10/12 02:18:31;;;;;;;76.72;19.88;;;;;;;;;;4877421;29;20041;-65
2022/10/12 02:20:59;;;;;;;74.90;20.80;;;;;;;;;;4877282;29;20063;-66
2022/10/12 02:23:26;;;;;;;77.00;19.33;;;;;;;;;;4860644;29;20063;-65
2022/10/12 02:25:54;;;;;;;98.70;20.00;;;;;;;;;;4876430;29;20057;-66
2022/10/12 02:28:22;;;;;;;69.53;18.15;;;;;;;;;;4859507;29;20613;-66
2022/10/12 02:31:00;;;;;;;61.88;17.83;;;;;;;;;;4870783;29;20468;-64
2022/10/12 02:33:49;;;;;;;53.80;16.90;;;;;;;;;;4877372;29;20040;-68
2022/10/12 02:36:19;;;;;;;84.13;19.75;;;;;;;;;;4877015;29;20048;-67
2022/10/12 02:38:50;;;;;;;77.13;20.85;;;;;;;;;;4877608;29;20041;-70
2022/10/12 02:41:22;;;;;;;67.70;19.25;;;;;;;;;;4876530;29;20467;-69
2022/10/12 02:43:55;;;;;;;104.95;22.55;;;;;;;;;;4875280;29;20045;-67
2022/10/12 02:46:23;;;;;;;83.38;24.27;;;;;;;;;;4875862;29;20127;-65
2022/10/12 02:48:50;;;;;;;62.80;19.10;;;;;;;;;;4877223;29;20041;-65
2022/10/12 02:51:18;;;;;;;98.43;22.63;;;;;;;;;;4876151;29;20057;-64
2022/10/12 02:53:45;;;;;;;67.50;20.70;;;;;;;;;;4876886;29;20051;-65
2022/10/12 02:56:13;;;;;;;84.20;24.27;;;;;;;;;;4859376;29;20048;-64
2022/10/12 02:58:41;;;;;;;91.50;24.13;;;;;;;;;;4875783;29;20502;-64
2022/10/12 03:01:08;;;;;;;99.65;22.70;;;;;;;;;;4875498;29;20131;-65
2022/10/12 03:03:34;;;;;;;120.05;24.10;;;;;;;;;;4876372;29;20060;-62
2022/10/12 03:06:01;;;;;;;90.78;21.83;;;;;;;;;;4859972;29;20045;-65
2022/10/12 03:08:28;;;;;;;62.47;19.45;;;;;;;;;;4876177;29;20053;-65
2022/10/12 03:10:59;;;;;;;74.63;20.95;;;;;;;;;;4875344;29;20049;-65
2022/10/12 03:13:25;;;;;;;106.88;23.23;;;;;;;;;;4875542;29;20409;-65
2022/10/12 03:15:52;;;;;;;116.82;24.92;;;;;;;;;;4858926;29;20045;-65
2022/10/12 03:18:18;;;;;;;101.72;23.73;;;;;;;;;;4876724;29;20371;-65
2022/10/12 03:20:48;;;;;;;74.22;25.13;;;;;;;;;;4877130;29;20037;-66
2022/10/12 03:23:14;;;;;;;77.40;23.70;;;;;;;;;;4875400;29;20486;-68
2022/10/12 03:25:41;;;;;;;150.55;28.30;;;;;;;;;;4874999;29;20483;-67
2022/10/12 03:28:07;;;;;;;108.43;24.75;;;;;;;;;;4875279;29;20045;-69
2022/10/12 03:30:34;;;;;;;81.88;23.45;;;;;;;;;;4875701;29;20603;-69
2022/10/12 03:33:00;;;;;;;95.97;23.70;;;;;;;;;;4875640;29;20527;-68
2022/10/12 03:35:27;;;;;;;92.93;23.90;;;;;;;;;;4876603;29;20045;-68
2022/10/12 03:37:54;;;;;;;80.40;23.75;;;;;;;;;;4875931;29;20776;-67
2022/10/12 03:40:20;;;;;;;84.32;23.00;;;;;;;;;;4859065;29;20041;-68
2022/10/12 03:42:47;;;;;;;92.22;25.48;;;;;;;;;;4875519;29;20048;-66
2022/10/12 03:45:13;;;;;;;104.03;23.95;;;;;;;;;;4875159;29;20048;-65
2022/10/12 03:47:40;;;;;;;87.55;24.08;;;;;;;;;;4876771;29;20045;-69
2022/10/12 03:50:07;;;;;;;85.13;22.23;;;;;;;;;;4875949;29;20535;-67
2022/10/12 03:52:33;;;;;;;84.95;22.08;;;;;;;;;;4874544;29;20459;-69
2022/10/12 03:55:00;;;;;;;92.38;24.20;;;;;;;;;;4875202;29;20041;-69
2022/10/12 03:57:26;;;;;;;89.80;24.00;;;;;;;;;;4874405;29;20041;-72
2022/10/12 03:59:53;;;;;;;79.35;25.17;;;;;;;;;;4875117;29;20041;-72
2022/10/12 04:02:19;;;;;;;99.82;25.23;;;;;;;;;;4876180;29;20080;-70
2022/10/12 04:04:46;;;;;;;102.90;27.65;;;;;;;;;;4875444;29;20033;-69
2022/10/12 04:07:12;;;;;;;99.20;24.75;;;;;;;;;;4874723;29;20049;-69
2022/10/12 04:09:39;;;;;;;77.57;23.00;;;;;;;;;;4874700;29;20045;-69
2022/10/12 04:12:05;;;;;;;113.22;25.75;;;;;;;;;;4874474;29;20092;-69
2022/10/12 04:14:32;;;;;;;77.00;20.42;;;;;;;;;;4875175;29;20051;-69
2022/10/12 04:16:58;;;;;;;89.22;22.77;;;;;;;;;;4842853;29;20526;-69
2022/10/12 04:19:25;;;;;;;118.18;24.25;;;;;;;;;;4841568;29;20046;-69
2022/10/12 04:21:51;;;;;;;79.80;22.63;;;;;;;;;;4842637;29;20080;-69
2022/10/12 04:24:18;;;;;;;86.22;22.80;;;;;;;;;;4840400;29;20756;-68
2022/10/12 04:26:44;;;;;;;118.07;26.63;;;;;;;;;;4837970;29;20046;-67
2022/10/12 04:29:12;;;;;;;89.00;24.08;;;;;;;;;;4841638;29;20056;-67
2022/10/12 04:31:39;;;;;;;89.88;23.65;;;;;;;;;;4841284;29;20407;-67
2022/10/12 04:34:05;;;;;;;112.20;24.92;;;;;;;;;;4841747;29;20050;-67
2022/10/12 04:36:32;;;;;;;86.85;23.92;;;;;;;;;;4842448;29;20045;-66
2022/10/12 04:38:58;;;;;;;84.38;22.38;;;;;;;;;;4839036;29;20503;-64
2022/10/12 04:41:26;;;;;;;95.03;23.90;;;;;;;;;;4839931;29;20125;-64
2022/10/12 04:43:53;;;;;;;67.30;20.35;;;;;;;;;;4841481;29;20407;-66
2022/10/12 04:46:19;;;;;;;77.72;22.55;;;;;;;;;;4842268;29;20050;-66
2022/10/12 04:48:46;;;;;;;98.80;22.80;;;;;;;;;;4841542;29;20154;-66
2022/10/12 04:51:12;;;;;;;100.90;22.75;;;;;;;;;;4840371;29;20046;-65
2022/10/12 04:53:39;;;;;;;111.57;24.50;;;;;;;;;;4837764;29;20054;-65
2022/10/12 04:56:05;;;;;;;96.53;23.50;;;;;;;;;;4841441;29;20141;-66
2022/10/12 04:58:32;;;;;;;118.78;25.33;;;;;;;;;;4840836;29;20054;-66
2022/10/12 05:00:58;;;;;;;77.75;21.38;;;;;;;;;;4840121;29;20173;-65
2022/10/12 05:03:25;;;;;;;120.32;26.58;;;;;;;;;;4841443;29;20041;-65
2022/10/12 05:05:52;;;;;;;89.95;23.70;;;;;;;;;;4838812;29;20042;-64
2022/10/12 05:08:18;;;;;;;114.03;25.15;;;;;;;;;;4838226;24;20140;-63
2022/10/12 05:10:45;;;;;;;82.18;24.48;;;;;;;;;;4853650;29;20422;-69
2022/10/12 05:13:12;;;;;;;85.53;23.73;;;;;;;;;;4853397;29;20141;-68
2022/10/12 05:15:40;;;;;;;105.95;25.02;;;;;;;;;;4874679;29;20039;-69
2022/10/12 05:18:06;;;;;;;95.57;24.20;;;;;;;;;;4858828;29;20083;-67
2022/10/12 05:20:33;;;;;;;107.45;24.70;;;;;;;;;;4875148;29;20048;-67
2022/10/12 05:22:59;;;;;;;96.60;24.70;;;;;;;;;;4874300;29;20486;-67
2022/10/12 05:25:28;;;;;;;96.72;27.00;;;;;;;;;;4873753;29;20042;-67
2022/10/12 05:27:55;;;;;;;90.90;24.83;;;;;;;;;;4873661;29;20557;-67
2022/10/12 05:30:21;;;;;;;100.55;25.90;;;;;;;;;;4848077;29;20044;-67
2022/10/12 05:32:48;;;;;;;99.25;25.08;;;;;;;;;;4879277;29;20049;-67
2022/10/12 05:35:15;;;;;;;85.78;23.77;;;;;;;;;;4877208;29;20132;-68
2022/10/12 05:37:41;;;;;;;106.70;26.33;;;;;;;;;;4878958;29;20045;-67
2022/10/12 05:40:08;;;;;;;92.80;24.63;;;;;;;;;;4877959;29;20041;-67
2022/10/12 05:42:34;;;;;;;104.20;26.73;;;;;;;;;;4868765;29;20512;-67
2022/10/12 05:45:01;;;;;;;106.43;26.73;;;;;;;;;;4871014;29;20494;-67
2022/10/12 05:47:28;;;;;;;91.07;24.65;;;;;;;;;;4873306;29;20106;-67
2022/10/12 05:49:55;;;;;;;118.88;27.08;;;;;;;;;;4876926;29;20156;-67
2022/10/12 05:52:21;;;;;;;83.28;25.38;;;;;;;;;;4876807;29;20104;-67
2022/10/12 05:54:48;;;;;;;106.95;27.23;;;;;;;;;;4878103;29;20044;-67
2022/10/12 05:57:15;;;;;;;117.75;28.85;;;;;;;;;;4877404;29;20044;-66
2022/10/12 05:59:41;;;;;;;88.95;30.42;;;;;;;;;;4878216;29;20049;-67
2022/10/12 06:02:11;;;;;;;131.63;33.22;;;;;;;;;;4876156;29;20084;-67
2022/10/12 06:04:38;;;;;;;132.25;36.03;;;;;;;;;;4859353;29;20522;-68
2022/10/12 06:07:04;;;;;;;118.43;31.83;;;;;;;;;;4859828;29;20525;-67
2022/10/12 06:09:31;;;;;;;99.40;30.23;;;;;;;;;;4877087;29;20418;-66
2022/10/12 06:11:57;;;;;;;143.43;34.28;;;;;;;;;;4876934;29;20418;-66
2022/10/12 06:14:24;;;;;;;104.55;34.80;;;;;;;;;;4877457;29;20056;-66
2022/10/12 06:16:50;;;;;;;103.60;33.05;;;;;;;;;;4877368;29;20048;-66
2022/10/12 06:19:20;;;;;;;116.60;36.38;;;;;;;;;;4876800;29;20068;-65
2022/10/12 06:21:46;;;;;;;105.15;36.60;;;;;;;;;;4876864;29;20037;-66
2022/10/12 06:24:13;;;;;;;91.82;29.27;;;;;;;;;;4877381;29;20057;-66
2022/10/12 06:26:39;;;;;;;133.70;27.38;;;;;;;;;;4877877;29;20052;-65
2022/10/12 06:29:06;;;;;;;98.45;20.90;;;;;;;;;;4876478;29;20045;-66
2022/10/12 06:31:32;;;;;;;68.70;19.13;;;;;;;;;;4877518;29;20041;-66
2022/10/12 06:33:59;;;;;;;82.78;21.45;;;;;;;;;;4876677;29;20052;-66
2022/10/12 06:36:25;;;;;;;64.32;19.63;;;;;;;;;;4876582;29;20132;-66
2022/10/12 06:38:52;;;;;;;81.07;20.42;;;;;;;;;;4877473;29;20494;-66
2022/10/12 06:41:18;;;;;;;111.55;22.08;;;;;;;;;;4876513;29;20041;-66
2022/10/12 06:43:45;;;;;;;78.18;20.42;;;;;;;;;;4859043;29;20068;-67
2022/10/12 06:46:12;;;;;;;71.43;20.52;;;;;;;;;;4859770;29;20041;-67
2022/10/12 06:48:38;;;;;;;70.35;21.70;;;;;;;;;;4876301;29;20558;-66
2022/10/12 06:51:05;;;;;;;92.75;20.75;;;;;;;;;;4876268;29;20075;-67
2022/10/12 06:53:33;;;;;;;102.72;23.77;;;;;;;;;;4871538;29;20045;-67
2022/10/12 06:56:06;;;;;;;65.68;20.65;;;;;;;;;;4874825;29;20417;-67
2022/10/12 06:58:33;;;;;;;82.10;21.45;;;;;;;;;;4875276;29;20045;-67
2022/10/12 07:01:03;;;;;;;92.32;22.00;;;;;;;;;;4875474;29;20399;-67
2022/10/12 07:03:30;;;;;;;83.55;21.92;;;;;;;;;;4875747;29;20181;-67
2022/10/12 07:06:16;;;;;;;98.65;23.05;;;;;;;;;;4874657;29;20083;-67
2022/10/12 07:08:43;;;;;;;124.15;24.77;;;;;;;;;;4874544;29;20049;-67
2022/10/12 07:11:10;;;;;;;108.50;23.58;;;;;;;;;;4874036;29;20041;-66
2022/10/12 07:13:37;;;;;;;102.85;22.27;;;;;;;;;;4873879;29;20051;-67
2022/10/12 07:16:04;;;;;;;93.82;22.75;;;;;;;;;;4858014;29;20045;-67
2022/10/12 07:18:30;;;;;;;110.60;22.23;;;;;;;;;;4875125;29;20049;-67
2022/10/12 07:20:58;;;;;;;61.50;22.77;;;;;;;;;;4875330;29;20037;-67
2022/10/12 07:23:26;;;;;;;87.63;21.90;;;;;;;;;;4874980;29;20037;-66
2022/10/12 07:25:52;;;;;;;76.43;22.45;;;;;;;;;;4874084;29;20396;-67
2022/10/12 07:28:19;;;;;;;82.22;20.23;;;;;;;;;;4875183;29;20053;-67
2022/10/12 07:30:46;;;;;;;89.15;22.02;;;;;;;;;;4865695;29;20044;-66
2022/10/12 07:33:12;;;;;;;119.60;23.23;;;;;;;;;;4870569;29;20163;-67
2022/10/12 07:35:39;;;;;;;93.90;21.85;;;;;;;;;;4843306;29;20079;-68
2022/10/12 07:38:26;;;;;;;69.47;18.75;;;;;;;;;;4876327;29;20045;-69
2022/10/12 07:40:53;;;;;;;59.35;17.33;;;;;;;;;;4875724;29;20029;-69
2022/10/12 07:43:19;;;;;;;99.18;21.52;;;;;;;;;;4869907;29;20057;-68
2022/10/12 07:45:46;;;;;;;64.05;19.60;;;;;;;;;;4874613;29;20049;-68
2022/10/12 07:48:12;;;;;;;69.95;19.20;;;;;;;;;;4866891;29;20045;-68
2022/10/12 07:50:39;;;;;;;66.95;20.52;;;;;;;;;;4876131;29;20052;-69
2022/10/12 07:53:05;;;;;;;93.32;21.27;;;;;;;;;;4874957;29;20422;-67
2022/10/12 07:55:32;;;;;;;68.05;18.38;;;;;;;;;;4855089;29;20491;-68
2022/10/12 07:57:59;;;;;;;54.13;18.10;;;;;;;;;;4865483;29;20132;-68
2022/10/12 08:00:26;;;;;;;87.15;19.33;;;;;;;;;;4875095;29;20037;-68
2022/10/12 08:02:52;;;;;;;65.80;17.73;;;;;;;;;;4870628;29;20033;-72
2022/10/12 08:05:22;;;;;;;73.10;18.55;;;;;;;;;;4871612;29;20501;-82
2022/10/12 08:07:50;;;;;;;64.35;18.10;;;;;;;;;;4869258;29;20565;-80
2022/10/12 08:10:17;;;;;;;80.43;20.83;;;;;;;;;;4866837;29;20052;-65
2022/10/12 08:12:44;;;;;;;62.88;17.98;;;;;;;;;;4862357;29;20067;-63
2022/10/12 08:15:17;;;;;;;;;;;;;;;;;;4868699;29;20533;-70
2022/10/12 08:17:43;;;;;;;87.80;18.90;;;;;;;;;;4871191;29;19923;-64
2022/10/12 08:20:10;;;;;;;109.47;18.88;;;;;;;;;;4870302;29;20045;-66
2022/10/12 08:22:36;;;;;;;72.40;16.25;;;;;;;;;;4867459;29;20049;-63
2022/10/12 08:25:03;;;;;;;51.53;13.75;;;;;;;;;;4875186;29;20033;-66
2022/10/12 08:27:30;;;;;;;77.07;16.33;;;;;;;;;;4875148;29;20041;-70
2022/10/12 08:29:57;;;;;;;48.25;14.43;;;;;;;;;;4876104;29;20049;-68
2022/10/12 08:32:24;;;;;;;49.65;13.13;;;;;;;;;;4875244;29;20056;-66
2022/10/12 08:34:50;;;;;;;56.42;13.52;;;;;;;;;;4875025;29;20052;-70
2022/10/12 08:37:17;;;;;;;81.80;14.48;;;;;;;;;;4875532;29;20407;-67
2022/10/12 08:39:43;;;;;;;52.60;13.27;;;;;;;;;;4875361;29;20462;-67
2022/10/12 08:42:24;;;;;;;74.65;12.68;;;;;;;;;;4872732;29;20116;-70
2022/10/12 08:44:59;;;;;;;42.03;10.40;;;;;;;;;;4873389;29;20495;-68
2022/10/12 08:47:31;;;;;;;50.13;11.48;;;;;;;;;;4873682;29;20045;-68
2022/10/12 08:49:59;;;;;;;54.58;11.05;;;;;;;;;;4873347;29;20048;-68
2022/10/12 08:52:27;;;;;;;79.60;12.25;;;;;;;;;;4857720;29;20048;-68
2022/10/12 08:54:54;;;;;;;85.63;13.60;;;;;;;;;;4874647;29;20128;-75
2022/10/12 08:57:21;;;;;;;50.88;10.77;;;;;;;;;;4856701;29;20757;-61
2022/10/12 08:59:47;;;;;;;46.75;9.82;;;;;;;;;;4876375;29;20132;-60
2022/10/12 09:02:23;;;;;;;71.03;12.80;;;;;;;;;;4871610;29;20414;-60
2022/10/12 09:04:53;;;;;;;38.90;9.88;;;;;;;;;;4872551;29;20052;-67
2022/10/12 09:07:22;;;;;;;34.25;8.50;;;;;;;;;;4877718;29;20045;-68
2022/10/12 09:09:58;;;;;;;56.53;8.93;;;;;;;;;;4876302;29;20061;-68
2022/10/12 09:12:34;;;;;;;75.90;10.80;;;;;;;;;;4856950;29;20069;-69
2022/10/12 09:15:02;;;;;;;71.32;9.90;;;;;;;;;;4856794;29;20051;-65
2022/10/12 09:17:37;;;;;;;83.10;10.38;;;;;;;;;;4875225;29;20084;-65
2022/10/12 09:20:14;;;;;;;169.75;15.07;;;;;;;;;;4877632;29;20097;-64
2022/10/12 09:22:42;;;;;;;72.32;9.00;;;;;;;;;;4877823;29;20049;-66
2022/10/12 09:25:13;;;;;;;53.22;8.18;;;;;;;;;;4878393;29;20052;-69
2022/10/12 09:27:39;;;;;;;66.20;8.60;;;;;;;;;;4860969;29;20064;-70
2022/10/12 09:30:12;;;;;;;82.05;10.32;;;;;;;;;;4879788;29;20380;-64
2022/10/12 09:32:38;;;;;;;67.13;8.45;;;;;;;;;;4867304;29;20426;-68
2022/10/12 09:35:06;;;;;;;39.35;6.03;;;;;;;;;;4857730;29;20064;-69
2022/10/12 09:37:34;;;;;;;63.15;8.00;;;;;;;;;;4855451;29;20598;-67
2022/10/12 09:40:00;;;;;;;36.80;6.05;;;;;;;;;;4875403;29;20402;-67
2022/10/12 09:42:27;;;;;;;38.03;5.80;;;;;;;;;;4877331;29;20055;-66
2022/10/12 09:45:12;;;;;;;50.33;7.95;;;;;;;;;;4877670;29;20049;-66
2022/10/12 09:47:39;;;;;;;55.65;7.43;;;;;;;;;;4876733;29;20124;-67
2022/10/12 09:50:06;;;;;;;37.08;5.55;;;;;;;;;;4877706;29;20041;-68
2022/10/12 09:52:35;;;;;;;46.03;5.85;;;;;;;;;;4877475;29;20044;-70
2022/10/12 09:55:21;;;;;;;38.15;4.82;;;;;;;;;;4878126;29;20125;-74
2022/10/12 09:57:53;;;;;;;55.90;6.32;;;;;;;;;;4877654;29;20060;-73
2022/10/12 10:00:25;;;;;;;38.25;5.50;;;;;;;;;;4860120;29;20060;-76
2022/10/12 10:02:52;;;;;;;59.47;5.68;;;;;;;;;;4877820;29;20057;-76
2022/10/12 10:05:22;;;;;;;43.70;5.93;;;;;;;;;;4877348;29;20049;-76
2022/10/12 10:07:49;;;;;;;50.63;5.70;;;;;;;;;;4877468;29;20069;-77
2022/10/12 10:10:22;;;;;;;58.85;6.07;;;;;;;;;;4877263;29;20418;-71
2022/10/12 10:13:01;;;;;;;53.35;6.38;;;;;;;;;;4854962;29;20137;-66
2022/10/12 10:15:40;;;;;;;64.20;6.70;;;;;;;;;;4860222;29;20076;-78
2022/10/12 10:18:25;;;;;;;64.68;6.55;;;;;;;;;;4873096;29;20057;-74
2022/10/12 10:20:53;;;;;;;108.95;8.05;;;;;;;;;;4876985;29;20057;-62
2022/10/12 10:23:27;;;;;;;47.65;5.43;;;;;;;;;;4858541;29;20053;-78
2022/10/12 10:25:55;;;;;;;59.58;6.22;;;;;;;;;;4870938;29;20116;-78
2022/10/12 10:28:23;;;;;;;47.88;5.20;;;;;;;;;;4875732;29;20414;-78
2022/10/12 10:30:58;;;;;;;38.95;4.65;;;;;;;;;;4873928;29;21415;-78
2022/10/12 10:33:24;;;;;;;53.70;5.40;;;;;;;;;;4875037;29;20077;-78
2022/10/12 10:35:53;;;;;;;45.95;5.07;;;;;;;;;;4876891;29;20068;-78
2022/10/12 10:38:19;;;;;;;43.10;5.03;;;;;;;;;;4872810;29;20045;-78
2022/10/12 10:40:51;;;;;;;49.35;5.85;;;;;;;;;;4872698;29;20037;-79
2022/10/12 10:43:20;;;;;;;46.63;5.82;;;;;;;;;;4872808;29;20060;-78
2022/10/12 10:45:48;;;;;;;34.75;4.53;;;;;;;;;;4874195;29;20042;-79
2022/10/12 10:48:16;;;;;;;41.88;4.82;;;;;;;;;;4875526;29;20072;-79
2022/10/12 10:50:48;;;;;;;40.92;5.30;;;;;;;;;;4876601;29;20063;-79
2022/10/12 10:53:20;;;;;;;78.70;7.38;;;;;;;;;;4874503;29;20048;-79
2022/10/12 10:55:49;;;;;;;68.55;5.97;;;;;;;;;;4869804;29;20041;-70
2022/10/12 10:58:26;;;;;;;36.88;4.65;;;;;;;;;;4873233;29;20410;-65
2022/10/12 11:00:56;;;;;;;42.63;5.63;;;;;;;;;;4875444;29;20044;-56
2022/10/12 11:03:41;;;;;;;58.00;5.95;;;;;;;;;;4871873;29;20037;-59
2022/10/12 11:06:17;;;;;;;42.90;5.20;;;;;;;;;;4866134;29;20045;-58
2022/10/12 11:08:44;;;;;;;92.45;8.10;;;;;;;;;;4869536;29;20570;-56
2022/10/12 11:11:18;;;;;;;52.78;6.07;;;;;;;;;;4870452;29;20052;-55
2022/10/12 11:14:03;;;;;;;68.93;6.88;;;;;;;;;;4875412;29;20041;-56
2022/10/12 11:16:33;;;;;;;35.47;4.90;;;;;;;;;;4875154;29;20155;-56
2022/10/12 11:19:04;;;;;;;77.88;7.30;;;;;;;;;;4875430;29;20139;-58
2022/10/12 11:21:36;;;;;;;38.33;4.32;;;;;;;;;;4876185;29;20055;-57
2022/10/12 11:24:15;;;;;;;43.60;4.95;;;;;;;;;;4873092;29;20467;-58
2022/10/12 11:26:55;;;;;;;74.93;7.50;;;;;;;;;;4869592;29;20056;-58
2022/10/12 11:29:22;;;;;;;53.05;5.57;;;;;;;;;;4875296;29;20057;-59
2022/10/12 11:31:48;;;;;;;48.28;6.88;;;;;;;;;;4875030;29;20041;-58
2022/10/12 11:34:20;;;;;;;66.28;8.45;;;;;;;;;;4875731;29;20135;-59
2022/10/12 11:36:48;;;;;;;77.68;7.97;;;;;;;;;;4875767;29;20033;-57
2022/10/12 11:39:41;;;;;;;70.03;7.35;;;;;;;;;;4875579;29;20072;-57
2022/10/12 11:42:12;;;;;;;78.68;7.05;;;;;;;;;;4875758;29;20041;-58
2022/10/12 11:44:53;;;;;;;42.92;4.78;;;;;;;;;;4876466;29;20075;-57
2022/10/12 11:47:26;;;;;;;59.13;6.60;;;;;;;;;;4875626;29;20080;-58
2022/10/12 11:49:56;;;;;;;33.23;4.70;;;;;;;;;;4875608;29;20569;-57
2022/10/12 11:52:24;;;;;;;35.05;4.28;;;;;;;;;;4876042;29;20044;-57
2022/10/12 11:54:59;;;;;;;56.47;6.07;;;;;;;;;;4875319;29;20045;-57
2022/10/12 11:57:28;;;;;;;29.42;4.13;;;;;;;;;;4875972;29;20056;-56
2022/10/12 11:59:58;;;;;;;63.28;8.10;;;;;;;;;;4876347;29;20041;-56
2022/10/12 12:02:44;;;;;;;69.40;6.10;;;;;;;;;;4875444;29;20101;-57
2022/10/12 12:05:12;;;;;;;71.95;7.25;;;;;;;;;;4875391;29;20500;-57
2022/10/12 12:07:42;;;;;;;55.38;5.72;;;;;;;;;;4875705;29;20490;-57
2022/10/12 12:10:24;;;;;;;49.53;5.35;;;;;;;;;;4874433;29;20566;-58
2022/10/12 12:13:10;;;;;;;87.03;8.02;;;;;;;;;;4875271;29;20410;-58
2022/10/12 12:15:46;;;;;;;35.80;4.28;;;;;;;;;;4875186;29;20048;-56
2022/10/12 12:18:13;;;;;;;56.80;7.82;;;;;;;;;;4875163;29;20128;-58
2022/10/12 12:20:42;;;;;;;43.28;6.53;;;;;;;;;;4875785;29;20060;-58
2022/10/12 12:23:19;;;;;;;86.38;7.75;;;;;;;;;;4874574;29;20052;-58
2022/10/12 12:25:46;;;;;;;40.03;4.07;;;;;;;;;;4873937;29;20048;-57
2022/10/12 12:28:16;;;;;;;61.92;6.55;;;;;;;;;;4874776;29;20047;-58
2022/10/12 12:30:54;;;;;;;49.80;6.20;;;;;;;;;;4875126;29;20049;-57
2022/10/12 12:33:20;;;;;;;97.05;8.20;;;;;;;;;;4873446;29;20077;-57
2022/10/12 12:35:55;;;;;;;61.40;6.20;;;;;;;;;;4874865;29;20068;-57
2022/10/12 12:38:23;;;;;;;118.78;10.25;;;;;;;;;;4872371;29;20486;-57
2022/10/12 12:40:57;;;;;;;87.30;7.68;;;;;;;;;;4872276;29;20052;-57
2022/10/12 12:43:30;;;;;;;62.72;8.95;;;;;;;;;;4875028;29;20047;-58
2022/10/12 12:46:00;;;;;;;43.87;6.60;;;;;;;;;;4874746;29;20045;-58
2022/10/12 12:48:39;;;;;;;81.32;7.93;;;;;;;;;;4874800;29;20539;-58
2022/10/12 12:51:08;;;;;;;53.83;6.07;;;;;;;;;;4871793;29;20052;-58
2022/10/12 12:53:39;;;;;;;49.22;5.53;;;;;;;;;;4874020;29;20041;-58
2022/10/12 12:56:24;;;;;;;72.07;6.93;;;;;;;;;;4874372;29;20063;-58
2022/10/12 12:59:09;;;;;;;116.65;9.10;;;;;;;;;;4875244;29;20041;-57
2022/10/12 13:01:48;;;;;;;105.00;8.05;;;;;;;;;;4874997;29;20033;-58
2022/10/12 13:04:15;;;;;;;77.72;7.18;;;;;;;;;;4874409;29;20045;-58
2022/10/12 13:07:00;;;;;;;56.83;6.00;;;;;;;;;;4874451;29;20204;-57
2022/10/12 13:09:33;;;;;;;76.82;7.47;;;;;;;;;;4874053;29;20053;-58
2022/10/12 13:11:59;;;;;;;66.07;5.68;;;;;;;;;;4872371;29;20045;-60
2022/10/12 13:14:35;;;;;;;29.80;4.65;;;;;;;;;;4873873;29;20139;-56
2022/10/12 13:17:20;;;;;;;89.60;8.75;;;;;;;;;;4874528;29;20534;-56
2022/10/12 13:20:00;;;;;;;142.90;10.23;;;;;;;;;;4874577;29;20041;-56
2022/10/12 13:22:29;;;;;;;49.65;5.25;;;;;;;;;;4874207;29;20044;-56
2022/10/12 13:25:05;;;;;;;35.15;4.43;;;;;;;;;;4874457;29;20118;-57
2022/10/12 13:27:38;;;;;;;32.83;4.50;;;;;;;;;;4874893;29;20111;-57
2022/10/12 13:30:11;;;;;;;137.27;9.98;;;;;;;;;;4872029;29;20057;-56
2022/10/12 13:32:37;;;;;;;;;;;;;;;;;;4875175;29;20044;-57
2022/10/12 13:35:08;;;;;;;76.35;6.90;;;;;;;;;;4874321;29;19956;-56
2022/10/12 13:37:35;;;;;;;30.92;4.20;;;;;;;;;;4874645;29;20142;-56
2022/10/12 13:40:01;;;;;;;116.82;10.75;;;;;;;;;;4873251;29;20053;-56
2022/10/12 13:42:30;;;;;;;40.13;4.75;;;;;;;;;;4874762;29;20047;-56
2022/10/12 13:44:57;;;;;;;41.50;4.72;;;;;;;;;;4875201;29;20474;-57
2022/10/12 13:47:28;;;;;;;29.58;4.32;;;;;;;;;;4874264;29;20258;-56
2022/10/12 13:49:55;;;;;;;65.47;6.88;;;;;;;;;;4874860;29;20048;-56
2022/10/12 13:52:32;;;;;;;51.35;4.90;;;;;;;;;;4875025;29;20052;-56
2022/10/12 13:54:59;;;;;;;31.05;5.07;;;;;;;;;;4877430;29;20510;-56
2022/10/12 13:57:34;;;;;;;70.00;8.38;;;;;;;;;;4877797;29;20080;-57
2022/10/12 14:00:06;;;;;;;42.45;5.55;;;;;;;;;;4874719;29;20405;-56
2022/10/12 14:02:33;;;;;;;75.75;8.52;;;;;;;;;;4877819;29;20077;-56
2022/10/12 14:05:01;;;;;;;62.47;7.72;;;;;;;;;;4877669;29;20045;-56
2022/10/12 14:07:34;;;;;;;34.65;5.10;;;;;;;;;;4877544;29;20045;-56
2022/10/12 14:10:01;;;;;;;;;;;;;;;;;;4876892;29;20061;-56
2022/10/12 14:12:29;;;;;;;56.13;5.90;;;;;;;;;;4876942;29;20033;-57
2022/10/12 14:14:56;;;;;;;65.47;7.20;;;;;;;;;;4873183;29;20038;-56
2022/10/12 14:17:23;;;;;;;64.85;8.30;;;;;;;;;;4870597;29;20057;-56
2022/10/12 14:19:51;;;;;;;56.13;7.22;;;;;;;;;;4872312;29;20089;-56
2022/10/12 14:22:29;;;;;;;47.53;6.90;;;;;;;;;;4877253;29;20048;-57
2022/10/12 14:25:07;;;;;;;60.22;8.43;;;;;;;;;;4876827;29;20048;-57
2022/10/12 14:27:36;;;;;;;63.90;7.70;;;;;;;;;;4877152;29;20041;-56
2022/10/12 14:30:05;;;;;;;109.13;10.70;;;;;;;;;;4877986;29;20498;-57
2022/10/12 14:32:39;;;;;;;80.93;8.65;;;;;;;;;;4877237;29;20049;-56
2022/10/12 14:35:11;;;;;;;97.50;11.57;;;;;;;;;;4876405;29;20124;-57